createdAt,value
2022-10-10T00:00:50.422Z,101423.88
2022-10-10T00:03:20.203Z,101422.16
2022-10-10T00:05:48.351Z,101415.25
2022-10-10T00:08:15.453Z,101385.66
2022-10-10T00:10:42.432Z,101401.25
2022-10-10T00:13:09.722Z,101413.47
2022-10-10T00:15:36.807Z,101416.88
2022-10-10T00:18:04.505Z,101394.28
2022-10-10T00:20:32.012Z,101416.91
2022-10-10T00:22:59.217Z,101415.19
2022-10-10T00:25:28.192Z,101411.72
2022-10-10T00:27:55.803Z,101416.88
2022-10-10T00:30:22.918Z,101360.44
2022-10-10T00:32:50.255Z,101405.63
2022-10-10T00:35:17.434Z,101414.16
2022-10-10T00:37:44.469Z,101406.34
2022-10-10T00:40:12.637Z,101384.59
2022-10-10T00:42:39.675Z,101359.28
2022-10-10T00:45:36.065Z,101371.41
2022-10-10T00:48:05.484Z,101404.28
2022-10-10T00:50:35.557Z,101406.06
2022-10-10T00:53:05.877Z,101398.34
2022-10-10T00:55:33.326Z,101399.19
2022-10-10T00:58:01.649Z,101399.13
2022-10-10T01:00:28.929Z,101394.09
2022-10-10T01:02:56.202Z,101390.63
2022-10-10T01:05:23.579Z,101388.94
2022-10-10T01:07:50.957Z,101372.34
2022-10-10T01:10:20.862Z,101310.88
2022-10-10T01:12:48.034Z,101376.03
2022-10-10T01:15:38.399Z,101367.44
2022-10-10T01:18:23.800Z,101364.81
2022-10-10T01:20:58.502Z,101363.09
2022-10-10T01:23:50.495Z,101356.97
2022-10-10T01:26:29.443Z,101356.00
2022-10-10T01:29:14.854Z,101357.72
2022-10-10T01:31:47.001Z,101356.81
2022-10-10T01:34:14.173Z,101357.63
2022-10-10T01:36:48.291Z,101359.38
2022-10-10T01:39:32.103Z,101331.47
2022-10-10T01:42:09.895Z,101225.47
2022-10-10T01:44:36.916Z,101303.75
2022-10-10T01:47:04.156Z,101347.19
2022-10-10T01:49:33.012Z,101332.28
2022-10-10T01:52:17.268Z,101354.00
2022-10-10T01:54:47.402Z,101346.28
2022-10-10T01:57:24.856Z,101347.13
2022-10-10T02:00:01.192Z,101344.53
2022-10-10T02:02:50.645Z,101341.94
2022-10-10T02:05:36.437Z,101338.56
2022-10-10T02:08:14.789Z,101335.06
2022-10-10T02:10:49.092Z,101334.97
2022-10-10T02:13:18.388Z,101315.81
2022-10-10T02:15:48.854Z,101319.47
2022-10-10T02:18:20.671Z,101324.66
2022-10-10T02:20:49.144Z,101299.69
2022-10-10T02:23:20.212Z,101322.94
2022-10-10T02:25:52.987Z,101262.22
2022-10-10T02:28:20.208Z,101317.75
2022-10-10T02:30:52.562Z,101309.94
2022-10-10T02:33:31.192Z,101272.56
2022-10-10T02:35:59.727Z,101296.94
2022-10-10T02:38:29.071Z,101310.72
2022-10-10T02:40:58.520Z,101311.56
2022-10-10T02:43:26.372Z,101296.94
2022-10-10T02:45:53.452Z,101295.09
2022-10-10T02:48:20.647Z,101295.09
2022-10-10T02:50:47.804Z,101299.41
2022-10-10T02:53:14.837Z,101281.91
2022-10-10T02:55:41.922Z,101316.63
2022-10-10T02:58:08.993Z,101278.41
2022-10-10T03:00:36.122Z,101250.56
2022-10-10T03:03:03.291Z,101314.03
2022-10-10T03:05:30.806Z,101302.72
2022-10-10T03:07:57.904Z,101293.28
2022-10-10T03:10:25.386Z,101299.34
2022-10-10T03:12:52.809Z,101243.59
2022-10-10T03:15:20.353Z,101302.81
2022-10-10T03:17:47.555Z,101288.06
2022-10-10T03:20:14.797Z,101288.00
2022-10-10T03:22:42.005Z,101288.94
2022-10-10T03:25:09.287Z,101288.00
2022-10-10T03:27:36.428Z,101263.63
2022-10-10T03:30:04.740Z,101253.09
2022-10-10T03:32:31.891Z,101275.59
2022-10-10T03:34:58.947Z,101254.75
2022-10-10T03:37:25.856Z,101171.22
2022-10-10T03:39:52.918Z,101240.72
2022-10-10T03:42:19.920Z,101284.88
2022-10-10T03:44:47.154Z,101155.50
2022-10-10T03:47:14.422Z,101251.06
2022-10-10T03:49:41.593Z,101270.00
2022-10-10T03:52:08.680Z,101272.81
2022-10-10T03:54:35.832Z,101219.00
2022-10-10T03:57:02.982Z,101276.09
2022-10-10T03:59:30.122Z,101262.25
2022-10-10T04:01:57.197Z,101254.31
2022-10-10T04:04:24.922Z,101257.69
2022-10-10T04:06:52.252Z,101254.25
2022-10-10T04:09:19.408Z,101247.38
2022-10-10T04:11:46.483Z,101255.91
2022-10-10T04:14:13.607Z,101201.25
2022-10-10T04:16:40.831Z,101184.66
2022-10-10T04:19:07.881Z,101252.31
2022-10-10T04:21:35.351Z,101255.09
2022-10-10T04:24:02.754Z,101252.53
2022-10-10T04:26:29.863Z,101226.47
2022-10-10T04:28:58.114Z,101228.22
2022-10-10T04:31:25.196Z,101251.63
2022-10-10T04:33:52.872Z,101252.47
2022-10-10T04:36:20.136Z,101236.88
2022-10-10T04:38:47.531Z,101236.81
2022-10-10T04:41:14.801Z,101240.28
2022-10-10T04:43:42.233Z,101194.28
2022-10-10T04:46:09.401Z,101242.19
2022-10-10T04:48:37.533Z,101233.44
2022-10-10T04:51:06.033Z,101235.22
2022-10-10T04:53:33.341Z,101214.34
2022-10-10T04:56:00.485Z,101237.69
2022-10-10T04:58:27.587Z,101227.34
2022-10-10T05:00:55.906Z,101227.31
2022-10-10T05:03:24.442Z,101224.63
2022-10-10T05:05:51.819Z,101221.25
2022-10-10T05:08:19.850Z,101216.81
2022-10-10T05:10:47.954Z,101211.84
2022-10-10T05:13:16.271Z,101212.72
2022-10-10T05:15:43.911Z,101195.44
2022-10-10T05:18:11.304Z,101181.63
2022-10-10T05:20:38.362Z,101205.84
2022-10-10T05:23:05.635Z,101145.16
2022-10-10T05:25:32.936Z,101154.78
2022-10-10T05:28:00.093Z,101204.25
2022-10-10T05:30:27.353Z,101195.56
2022-10-10T05:32:54.651Z,101205.91
2022-10-10T05:35:21.973Z,101197.28
2022-10-10T05:37:49.066Z,101200.84
2022-10-10T05:40:16.205Z,101197.38
2022-10-10T05:42:43.494Z,101189.75
2022-10-10T05:45:11.037Z,101154.09
2022-10-10T05:47:38.354Z,101162.84
2022-10-10T05:50:06.509Z,101189.88
2022-10-10T05:52:35.605Z,101185.63
2022-10-10T05:55:02.641Z,101159.53
2022-10-10T05:57:29.803Z,101196.09
2022-10-10T05:59:56.813Z,101195.25
2022-10-10T06:02:24.062Z,101189.25
2022-10-10T06:04:51.184Z,101185.94
2022-10-10T06:07:18.302Z,101182.50
2022-10-10T06:09:45.556Z,101187.78
2022-10-10T06:12:12.774Z,101184.41
2022-10-10T06:14:40.141Z,101187.88
2022-10-10T06:17:07.765Z,101121.84
2022-10-10T06:19:34.962Z,101194.91
2022-10-10T06:22:02.365Z,101182.00
2022-10-10T06:24:30.116Z,101179.59
2022-10-10T06:26:57.224Z,101115.47
2022-10-10T06:29:24.282Z,101145.13
2022-10-10T06:31:51.572Z,101176.47
2022-10-10T06:34:18.923Z,101171.34
2022-10-10T06:36:46.125Z,101176.66
2022-10-10T06:39:13.145Z,101189.59
2022-10-10T06:41:40.242Z,101179.41
2022-10-10T06:44:10.883Z,101181.13
2022-10-10T06:46:38.023Z,101176.94
2022-10-10T06:49:05.504Z,101171.09
2022-10-10T06:51:32.948Z,101181.44
2022-10-10T06:54:00.048Z,101175.56
2022-10-10T06:56:28.127Z,101177.34
2022-10-10T06:58:55.932Z,101168.91
2022-10-10T07:01:25.254Z,101162.97
2022-10-10T07:03:52.585Z,101150.03
2022-10-10T07:06:19.806Z,101134.66
2022-10-10T07:08:47.082Z,101094.91
2022-10-10T07:11:14.502Z,101147.06
2022-10-10T07:13:41.872Z,101136.75
2022-10-10T07:16:10.294Z,101117.91
2022-10-10T07:18:37.951Z,101143.91
2022-10-10T07:21:05.923Z,101130.13
2022-10-10T07:23:33.210Z,101121.72
2022-10-10T07:26:06.417Z,101139.13
2022-10-10T07:28:34.023Z,101128.94
2022-10-10T07:31:04.475Z,101129.09
2022-10-10T07:33:32.721Z,101118.88
2022-10-10T07:36:00.085Z,101119.06
2022-10-10T07:38:27.293Z,101119.22
2022-10-10T07:40:54.453Z,101114.22
2022-10-10T07:43:21.812Z,101102.31
2022-10-10T07:45:49.254Z,101100.81
2022-10-10T07:48:16.869Z,101099.16
2022-10-10T07:50:45.081Z,101089.81
2022-10-10T07:53:12.863Z,101014.72
2022-10-10T07:55:43.881Z,101090.91
2022-10-10T07:58:12.231Z,101080.66
2022-10-10T08:00:43.021Z,101082.50
2022-10-10T08:03:12.171Z,101078.22
2022-10-10T08:05:44.398Z,101075.72
2022-10-10T08:08:11.783Z,101070.56
2022-10-10T08:10:44.018Z,101060.22
2022-10-10T08:13:11.182Z,101071.47
2022-10-10T08:15:42.042Z,101067.19
2022-10-10T08:18:09.317Z,101062.88
2022-10-10T08:20:36.562Z,101011.94
2022-10-10T08:23:03.845Z,101039.56
2022-10-10T08:25:30.993Z,101043.06
2022-10-10T08:27:58.215Z,101062.88
2022-10-10T08:30:25.503Z,101063.75
2022-10-10T08:32:52.957Z,101004.16
2022-10-10T08:35:20.476Z,101055.94
2022-10-10T08:37:47.682Z,101052.47
2022-10-10T08:40:21.126Z,101016.19
2022-10-10T08:42:53.295Z,101048.09
2022-10-10T08:45:24.768Z,101037.69
2022-10-10T08:47:55.362Z,101046.28
2022-10-10T08:50:28.133Z,101035.91
2022-10-10T08:53:03.688Z,101039.34
2022-10-10T08:55:34.032Z,101020.31
2022-10-10T08:58:10.452Z,101041.00
2022-10-10T09:00:46.858Z,101054.81
2022-10-10T09:03:30.874Z,101045.28
2022-10-10T09:06:33.276Z,101034.88
2022-10-10T09:09:28.206Z,101040.88
2022-10-10T09:12:13.413Z,101035.63
2022-10-10T09:14:46.115Z,101031.22
2022-10-10T09:17:22.163Z,101026.00
2022-10-10T09:20:24.667Z,101000.94
2022-10-10T09:23:03.650Z,101009.47
2022-10-10T09:25:57.931Z,100971.47
2022-10-10T09:28:30.670Z,101005.91
2022-10-10T09:31:00.313Z,101005.09
2022-10-10T09:33:36.240Z,101009.41
2022-10-10T09:36:09.969Z,100933.50
2022-10-10T09:38:48.183Z,100967.00
2022-10-10T09:41:25.897Z,100988.53
2022-10-10T09:44:03.209Z,100990.25
2022-10-10T09:46:30.438Z,100988.59
2022-10-10T09:48:58.136Z,100976.44
2022-10-10T09:51:25.413Z,100957.44
2022-10-10T09:53:52.522Z,100981.50
2022-10-10T09:56:29.521Z,100974.56
2022-10-10T09:58:57.162Z,100948.63
2022-10-10T10:01:29.155Z,100958.03
2022-10-10T10:04:28.990Z,100957.22
2022-10-10T10:07:06.786Z,100951.91
2022-10-10T10:09:34.171Z,100960.53
2022-10-10T10:12:01.646Z,100960.44
2022-10-10T10:14:35.358Z,100952.63
2022-10-10T10:17:25.042Z,100942.16
2022-10-10T10:19:52.809Z,100944.59
2022-10-10T10:22:37.786Z,100941.06
2022-10-10T10:25:31.712Z,100936.66
2022-10-10T10:28:11.344Z,100920.19
2022-10-10T10:30:40.166Z,100921.00
2022-10-10T10:37:05.364Z,100909.50
2022-10-10T10:39:51.381Z,100912.72
2022-10-10T10:42:30.521Z,100909.13
2022-10-10T10:45:26.969Z,100905.59
2022-10-10T10:48:32.658Z,100893.41
2022-10-10T10:51:25.858Z,100889.91
2022-10-10T10:54:26.619Z,100888.19
2022-10-10T10:57:06.214Z,100886.38
2022-10-10T11:00:25.614Z,100881.13
2022-10-10T11:02:59.638Z,100879.41
2022-10-10T11:05:55.806Z,100865.38
2022-10-10T11:09:44.913Z,100868.75
2022-10-10T11:12:10.438Z,100856.53
2022-10-10T11:14:49.950Z,100866.91
2022-10-10T11:17:38.967Z,100855.56
2022-10-10T11:20:25.633Z,100856.38
2022-10-10T11:23:18.929Z,100857.97
2022-10-10T11:26:18.233Z,100844.09
2022-10-10T11:28:54.888Z,100842.28
2022-10-10T11:31:28.769Z,100842.22
2022-10-10T11:34:07.427Z,100828.19
2022-10-10T11:36:39.546Z,100829.81
2022-10-10T11:39:30.788Z,100833.13
2022-10-10T11:42:03.148Z,100822.63
2022-10-10T11:45:00.038Z,100819.13
2022-10-10T11:47:36.154Z,100819.13
2022-10-10T11:50:14.032Z,100815.66
2022-10-10T11:52:52.259Z,100804.34
2022-10-10T11:55:37.618Z,100800.00
2022-10-10T11:58:07.493Z,100801.72
2022-10-10T12:00:40.939Z,100791.44
2022-10-10T12:03:09.223Z,100787.84
2022-10-10T12:05:40.088Z,100782.47
2022-10-10T12:08:25.173Z,100785.84
2022-10-10T12:11:18.958Z,100773.59
2022-10-10T12:13:49.353Z,100762.31
2022-10-10T12:16:19.767Z,100759.63
2022-10-10T12:18:51.342Z,100763.06
2022-10-10T12:21:22.940Z,100757.78
2022-10-10T12:24:01.325Z,100761.19
2022-10-10T12:26:57.136Z,100750.81
2022-10-10T12:30:02.684Z,100752.56
2022-10-10T12:32:55.111Z,100749.88
2022-10-10T12:35:31.948Z,100743.69
2022-10-10T12:38:10.652Z,100743.59
2022-10-10T12:41:08.803Z,100733.09
2022-10-10T12:44:11.001Z,100733.03
2022-10-10T12:46:38.159Z,100726.88
2022-10-10T12:49:24.832Z,100719.00
2022-10-10T12:52:05.515Z,100713.78
2022-10-10T12:54:39.330Z,100712.78
2022-10-10T12:57:14.379Z,100711.84
2022-10-10T12:59:42.038Z,100710.84
2022-10-10T13:02:28.269Z,100701.34
2022-10-10T13:04:59.593Z,100696.13
2022-10-10T13:07:27.492Z,100687.41
2022-10-10T13:10:03.664Z,100679.59
2022-10-10T13:12:32.642Z,100691.88
2022-10-10T13:14:59.873Z,100682.56
2022-10-10T13:17:41.560Z,100687.13
2022-10-10T13:20:43.883Z,100681.25
2022-10-10T13:23:14.836Z,100672.91
2022-10-10T13:25:46.342Z,100676.50
2022-10-10T13:28:19.369Z,100667.94
2022-10-10T13:30:47.554Z,100665.50
2022-10-10T13:33:18.211Z,100664.72
2022-10-10T13:35:47.675Z,100644.28
2022-10-10T13:38:16.480Z,100657.09
2022-10-10T13:40:44.829Z,100671.00
2022-10-10T13:43:14.753Z,100661.59
2022-10-10T13:45:47.825Z,100659.81
2022-10-10T13:48:35.854Z,100666.78
2022-10-10T13:51:09.110Z,100653.78
2022-10-10T13:53:55.843Z,100648.63
2022-10-10T13:56:31.701Z,100648.66
2022-10-10T13:59:01.733Z,100649.50
2022-10-10T14:01:33.227Z,100622.06
2022-10-10T14:04:17.859Z,100640.88
2022-10-10T14:06:55.551Z,100627.88
2022-10-10T14:09:31.005Z,100627.84
2022-10-10T14:12:02.667Z,100624.41
2022-10-10T14:14:40.648Z,100617.47
2022-10-10T14:17:10.477Z,100618.38
2022-10-10T14:19:38.497Z,100612.31
2022-10-10T14:22:05.523Z,100612.34
2022-10-10T14:24:32.648Z,100608.03
2022-10-10T14:27:27.092Z,100608.09
2022-10-10T14:29:56.793Z,100601.13
2022-10-10T14:32:24.628Z,100609.81
2022-10-10T14:34:52.164Z,100599.38
2022-10-10T14:37:23.700Z,100595.91
2022-10-10T14:39:51.408Z,100598.59
2022-10-10T14:42:19.967Z,100591.56
2022-10-10T14:44:47.118Z,100596.84
2022-10-10T14:47:22.891Z,100590.75
2022-10-10T14:49:50.299Z,100586.38
2022-10-10T14:52:17.446Z,100591.66
2022-10-10T14:54:44.587Z,100583.84
2022-10-10T14:57:15.088Z,100587.34
2022-10-10T14:59:48.451Z,100580.47
2022-10-10T15:02:18.807Z,100581.38
2022-10-10T15:04:45.968Z,100582.31
2022-10-10T15:07:14.725Z,100568.50
2022-10-10T15:10:02.566Z,100582.44
2022-10-10T15:12:32.143Z,100567.03
2022-10-10T15:14:59.343Z,100582.53
2022-10-10T15:17:27.366Z,100576.63
2022-10-10T15:19:54.489Z,100576.63
2022-10-10T15:22:21.809Z,100572.34
2022-10-10T15:24:48.963Z,100565.53
2022-10-10T15:27:16.107Z,100570.75
2022-10-10T15:29:43.196Z,100572.53
2022-10-10T15:32:10.418Z,100570.06
2022-10-10T15:34:37.512Z,100568.38
2022-10-10T15:37:04.741Z,100557.34
2022-10-10T15:39:35.947Z,100564.22
2022-10-10T15:42:09.570Z,100542.78
2022-10-10T15:44:47.970Z,100545.38
2022-10-10T15:47:16.530Z,100553.19
2022-10-10T15:49:43.979Z,100559.28
2022-10-10T15:52:11.346Z,100557.63
2022-10-10T15:54:38.465Z,100554.22
2022-10-10T15:57:05.609Z,100552.53
2022-10-10T15:59:33.396Z,100552.59
2022-10-10T16:02:01.672Z,100547.53
2022-10-10T16:04:28.944Z,100557.88
2022-10-10T16:09:43.646Z,100561.47
2022-10-10T16:12:10.749Z,100556.31
2022-10-10T16:14:37.785Z,100559.00
2022-10-10T16:17:05.086Z,100553.06
2022-10-10T16:19:32.164Z,100549.56
2022-10-10T16:21:59.715Z,100549.63
2022-10-10T16:24:26.864Z,100546.31
2022-10-10T16:26:54.059Z,100538.50
2022-10-10T16:29:21.173Z,100540.31
2022-10-10T16:31:48.275Z,100546.41
2022-10-10T16:34:16.212Z,100541.28
2022-10-10T16:36:43.746Z,100539.53
2022-10-10T16:39:12.621Z,100536.13
2022-10-10T16:41:48.004Z,100531.91
2022-10-10T16:44:16.372Z,100539.66
2022-10-10T16:46:43.982Z,100540.56
2022-10-10T16:49:13.220Z,100537.13
2022-10-10T16:51:40.399Z,100532.91
2022-10-10T16:54:07.777Z,100515.78
2022-10-10T16:56:35.915Z,100532.03
2022-10-10T16:59:03.867Z,100528.66
2022-10-10T17:01:31.163Z,100491.75
2022-10-10T17:04:00.306Z,100498.63
2022-10-10T17:06:34.144Z,100523.56
2022-10-10T17:09:03.340Z,100536.59
2022-10-10T17:11:30.542Z,100497.97
2022-10-10T17:13:57.836Z,100516.78
2022-10-10T17:19:15.046Z,100515.19
2022-10-10T17:21:42.384Z,100526.31
2022-10-10T17:24:10.115Z,100528.94
2022-10-10T17:26:37.502Z,100492.88
2022-10-10T17:29:04.836Z,100487.75
2022-10-10T17:31:32.201Z,100526.38
2022-10-10T17:33:59.529Z,100512.56
2022-10-10T17:36:27.971Z,100519.47
2022-10-10T17:39:04.889Z,100518.59
2022-10-10T17:41:33.631Z,100517.72
2022-10-10T17:44:00.972Z,100505.69
2022-10-10T17:46:34.887Z,100500.50
2022-10-10T17:49:05.682Z,100509.16
2022-10-10T17:51:33.106Z,100504.84
2022-10-10T17:54:01.199Z,100504.91
2022-10-10T17:56:29.037Z,100504.00
2022-10-10T17:58:56.349Z,100500.56
2022-10-10T18:01:23.709Z,100504.97
2022-10-10T18:03:51.851Z,100492.09
2022-10-10T18:06:22.527Z,100419.25
2022-10-10T18:08:51.416Z,100499.88
2022-10-10T18:11:22.128Z,100452.69
2022-10-10T18:13:49.718Z,100500.75
2022-10-10T18:16:20.144Z,100481.88
2022-10-10T18:18:51.013Z,100493.91
2022-10-10T18:21:22.329Z,100492.25
2022-10-10T18:23:50.059Z,100475.19
2022-10-10T18:26:23.722Z,100492.31
2022-10-10T18:28:54.160Z,100483.66
2022-10-10T18:31:22.402Z,100489.78
2022-10-10T18:33:49.913Z,100484.63
2022-10-10T18:36:20.530Z,100484.63
2022-10-10T18:38:47.731Z,100481.16
2022-10-10T18:41:18.189Z,100478.63
2022-10-10T18:43:45.626Z,100474.34
2022-10-10T18:46:15.537Z,100478.69
2022-10-10T18:48:43.392Z,100473.50
2022-10-10T18:51:17.334Z,100465.75
2022-10-10T18:53:46.467Z,100457.97
2022-10-10T18:56:15.494Z,100471.84
2022-10-10T18:58:43.254Z,100425.50
2022-10-10T19:01:12.451Z,100465.81
2022-10-10T19:03:40.762Z,100412.78
2022-10-10T19:06:11.186Z,100389.59
2022-10-10T19:08:38.251Z,100463.34
2022-10-10T19:11:07.256Z,100462.50
2022-10-10T19:13:35.127Z,100458.22
2022-10-10T19:16:07.212Z,100455.63
2022-10-10T19:18:35.338Z,100389.72
2022-10-10T19:21:04.904Z,100458.28
2022-10-10T19:23:33.922Z,100429.09
2022-10-10T19:26:07.307Z,100453.13
2022-10-10T19:28:35.595Z,100448.84
2022-10-10T19:31:08.673Z,100453.19
2022-10-10T19:33:36.422Z,100449.69
2022-10-10T19:36:06.093Z,100424.81
2022-10-10T19:38:34.501Z,100448.88
2022-10-10T19:41:02.564Z,100406.91
2022-10-10T19:43:29.964Z,100420.59
2022-10-10T19:45:57.090Z,100454.94
2022-10-10T19:48:25.249Z,100454.13
2022-10-10T19:50:54.107Z,100430.97
2022-10-10T19:53:21.208Z,100451.53
2022-10-10T19:55:59.127Z,100426.78
2022-10-10T19:58:27.144Z,100458.50
2022-10-10T20:00:54.623Z,100457.63
2022-10-10T20:03:22.129Z,100461.16
2022-10-10T20:05:49.474Z,100432.00
2022-10-10T20:08:16.783Z,100461.19
2022-10-10T20:10:44.874Z,100463.78
2022-10-10T20:13:15.274Z,100425.16
2022-10-10T20:15:42.772Z,100458.69
2022-10-10T20:18:10.734Z,100460.47
2022-10-10T20:20:48.144Z,100458.72
2022-10-10T20:23:18.170Z,100461.28
2022-10-10T20:25:45.935Z,100450.16
2022-10-10T20:28:15.399Z,100461.28
2022-10-10T20:30:45.473Z,100460.47
2022-10-10T20:33:12.650Z,100440.66
2022-10-10T20:35:39.853Z,100408.91
2022-10-10T20:38:11.067Z,100459.59
2022-10-10T20:40:47.343Z,100416.63
2022-10-10T20:43:16.585Z,100455.28
2022-10-10T20:45:43.742Z,100419.22
2022-10-10T20:48:11.028Z,100463.06
2022-10-10T20:50:38.513Z,100466.50
2022-10-10T20:53:06.694Z,100435.53
2022-10-10T20:55:34.382Z,100461.31
2022-10-10T20:58:01.587Z,100461.38
2022-10-10T21:00:28.700Z,100467.41
2022-10-10T21:02:56.643Z,100465.66
2022-10-10T21:05:24.204Z,100465.66
2022-10-10T21:07:51.259Z,100463.09
2022-10-10T21:10:18.443Z,100472.56
2022-10-10T21:12:46.076Z,100467.41
2022-10-10T21:15:13.184Z,100470.84
2022-10-10T21:17:40.550Z,100458.81
2022-10-10T21:20:08.384Z,100460.53
2022-10-10T21:22:35.667Z,100440.72
2022-10-10T21:25:03.109Z,100426.16
2022-10-10T21:27:30.227Z,100462.22
2022-10-10T21:29:57.396Z,100429.59
2022-10-10T21:32:24.646Z,100463.19
2022-10-10T21:34:56.245Z,100459.75
2022-10-10T21:37:23.649Z,100470.94
2022-10-10T21:39:50.861Z,100469.19
2022-10-10T21:42:17.914Z,100465.69
2022-10-10T21:44:45.190Z,100439.97
2022-10-10T21:47:12.337Z,100476.03
2022-10-10T21:49:39.404Z,100469.09
2022-10-10T21:52:06.583Z,100463.97
2022-10-10T21:54:33.743Z,100427.97
2022-10-10T21:57:01.007Z,100461.31
2022-10-10T21:59:31.917Z,100429.59
2022-10-10T22:01:59.175Z,100470.75
2022-10-10T22:04:29.027Z,100475.94
2022-10-10T22:06:56.498Z,100437.31
2022-10-10T22:09:23.546Z,100476.03
2022-10-10T22:11:50.996Z,100405.72
2022-10-10T22:14:18.352Z,100476.13
2022-10-10T22:16:45.677Z,100478.59
2022-10-10T22:19:12.797Z,100482.91
2022-10-10T22:21:40.088Z,100470.88
2022-10-10T22:24:08.253Z,100482.91
2022-10-10T22:26:35.930Z,100485.50
2022-10-10T22:29:04.048Z,100458.00
2022-10-10T22:31:31.209Z,100470.84
2022-10-10T22:33:58.513Z,100474.28
2022-10-10T22:36:25.784Z,100469.09
2022-10-10T22:38:52.889Z,100402.19
2022-10-10T22:41:20.085Z,100445.09
2022-10-10T22:43:47.780Z,100426.19
2022-10-10T22:46:14.826Z,100472.59
2022-10-10T22:48:42.013Z,100424.53
2022-10-10T22:51:12.965Z,100468.31
2022-10-10T22:53:41.475Z,100430.59
2022-10-10T22:56:09.666Z,100470.84
2022-10-10T22:58:37.032Z,100476.03
2022-10-10T23:01:15.137Z,100474.28
2022-10-10T23:03:42.865Z,100461.41
2022-10-10T23:06:10.066Z,100457.97
2022-10-10T23:08:37.344Z,100472.59
2022-10-10T23:11:04.967Z,100464.81
2022-10-10T23:13:32.930Z,100473.47
2022-10-10T23:16:00.103Z,100469.19
2022-10-10T23:18:29.173Z,100468.38
2022-10-10T23:20:56.816Z,100462.34
2022-10-10T23:23:25.963Z,100443.47
2022-10-10T23:25:53.045Z,100446.94
2022-10-10T23:28:20.214Z,100467.56
2022-10-10T23:30:48.512Z,100447.84
2022-10-10T23:33:17.071Z,100467.63
2022-10-10T23:35:44.205Z,100477.97
2022-10-10T23:38:11.715Z,100481.38
2022-10-10T23:40:38.847Z,100472.03
2022-10-10T23:43:07.605Z,100483.16
2022-10-10T23:45:34.892Z,100482.31
2022-10-10T23:48:02.118Z,100399.16
2022-10-10T23:50:29.737Z,100485.84
2022-10-10T23:52:56.873Z,100463.50
2022-10-10T23:55:24.349Z,100484.13
2022-10-10T23:57:51.533Z,100489.31
